메인 페이지
METAR-TAF:

METAR-TAF

공항 :

두바이, 아랍에미리트

두바이 국제공항

위도: 25-15-10N, 경도: 055-21-52E, 고도: 8m

현재 날씨관측

예보는 21분 전, 19:00시(UTC)에 발표되었습니다.
북북동7kt풍과 풍을 오가는
온도 21°C
습도 69%
기압 1018 hPa
시정 10km 이상
1500m 미만 상공 구름 및 적란운 없음

METAR: OMDB 191900Z 03007KT 350V080 CAVOK 21/15 Q1018 NOSIG

시각: 23:21 (19:21 UTC)

예보

예보는 2 시간 26분 전, 16:55시(UTC)에 발표되었습니다.
예보 대상 시간: 19일 18시부터 21일 00시까지 (UTC)
동북동5kt
시정 10km 이상
1500m 미만 상공 구름 및 적란운 없음
확률 30%
20일 01시부터 20일 05시까지 (UTC)
시정: 4000m
연무
전환 중
20일 09시부터 20일 11시까지 (UTC)
북서10kt
전환 중
20일 15시부터 20일 17시까지 (UTC)
5kt

TAF: OMDB 191655Z 1918/2100 07005KT CAVOK PROB30 2001/2005 4000 HZ BECMG 2009/2011 32010KT BECMG 2015/2017 10005KT

4,000개 이상의 공항 관측 자료 및 예보 (METAR 및 TAF 보고).

지도상에서 검색 가능한 기상관측소가 노란 점과 빨간 점으로 표시되어 있습니다.

기상관측소 명을 보려면 표시 위로 마우스를 이동하세요.

날씨 관측과 예보를 보려면 클릭하세요.

지도 변경 : 확대하려면 엑스 표시가 있는 녹색 버튼, 축소하려면 빼기 표시가 있는 녹색 버튼, 다음 페이지의 지도를 보려면 녹색 화살표를 클릭하세요.


METAR-TAF: